createdAt,value
2019-01-17T00:02:16.731Z,5.3
2019-01-17T00:18:52.763Z,5.6
2019-01-17T00:35:28.863Z,5.3
2019-01-17T00:52:04.961Z,5.3
2019-01-17T01:08:41.061Z,5.3
2019-01-17T01:25:17.156Z,5.3
2019-01-17T01:41:53.315Z,5.3
2019-01-17T01:58:29.516Z,5.3
2019-01-17T02:15:05.768Z,5.6
2019-01-17T02:31:41.750Z,5.3
2019-01-17T02:48:17.704Z,5.0
2019-01-17T03:04:53.609Z,5.0
2019-01-17T03:21:29.488Z,5.0
2019-01-17T03:38:05.329Z,5.0
2019-01-17T03:54:42.146Z,4.6
2019-01-17T04:11:16.692Z,4.6
2019-01-17T04:27:52.479Z,5.0
2019-01-17T04:44:28.255Z,5.0
2019-01-17T05:01:03.998Z,5.0
2019-01-17T05:17:39.835Z,5.0
2019-01-17T05:34:15.805Z,5.3
2019-01-17T05:50:51.840Z,5.3
2019-01-17T06:07:27.954Z,5.3
2019-01-17T06:24:04.028Z,5.3
2019-01-17T06:40:40.080Z,5.3
2019-01-17T06:57:16.397Z,5.0
2019-01-17T07:13:51.998Z,5.0
2019-01-17T07:30:27.741Z,5.0
2019-01-17T07:47:03.524Z,5.0
2019-01-17T08:03:39.336Z,5.0
2019-01-17T08:20:15.200Z,5.3
2019-01-17T08:36:51.400Z,5.3
2019-01-17T08:53:27.426Z,5.3
2019-01-17T09:10:03.437Z,5.3
2019-01-17T09:26:39.818Z,5.6
2019-01-17T09:43:16.180Z,5.9
2019-01-17T09:59:52.903Z,6.2
2019-01-17T10:16:29.517Z,6.2
2019-01-17T10:33:06.206Z,6.6
2019-01-17T10:49:42.843Z,6.6
2019-01-17T11:06:19.786Z,5.9
2019-01-17T11:22:56.236Z,5.6
2019-01-17T11:39:32.774Z,5.3
2019-01-17T11:56:08.744Z,5.0
2019-01-17T12:07:46.188Z,4.3
2019-01-17T12:24:21.388Z,4.3
2019-01-17T12:40:56.768Z,4.3
2019-01-17T12:57:32.358Z,4.3
2019-01-17T13:14:08.098Z,4.3
2019-01-17T13:30:43.737Z,4.3
2019-01-17T13:47:19.332Z,4.3
2019-01-17T14:03:55.017Z,4.3
2019-01-17T14:20:30.591Z,4.3
2019-01-17T14:37:06.266Z,4.3
2019-01-17T21:11:37.031Z,2.7
2019-01-17T21:28:10.922Z,2.1
2019-01-17T21:44:44.698Z,1.8
2019-01-17T22:01:18.349Z,1.8
2019-01-17T22:17:52.050Z,2.1
2019-01-17T22:34:25.884Z,2.1
2019-01-17T22:50:59.652Z,1.8
2019-01-17T23:07:33.356Z,1.4
2019-01-17T23:24:06.817Z,1.4
2019-01-17T23:40:40.402Z,1.4
2019-01-17T23:57:13.760Z,1.4
